Time;durP1;ratioP1;P1;durP2;ratioP2;P2;SDS_P1;SDS_P2;PMS_P1;PMS_P2;Temp;Humidity;BMP_temperature;BMP_pressure;BME280_temperature;BME280_humidity;BME280_pressure;Samples;Min_cycle;Max_cycle;Signal;HPM_P1;HPM_P2
2023/05/16 00:00:19;;;;;;;2.72;1.08;;;22.50;41.90;;;;;;5061294;28;20179;-58
2023/05/16 00:02:46;;;;;;;2.60;0.70;;;22.50;41.90;;;;;;5061214;28;20025;-60
2023/05/16 00:05:15;;;;;;;3.92;1.20;;;22.50;41.90;;;;;;5062801;28;20029;-58
2023/05/16 00:07:46;;;;;;;1.65;0.80;;;22.50;41.90;;;;;;5058764;28;20032;-59
2023/05/16 00:10:12;;;;;;;3.38;1.00;;;22.50;41.80;;;;;;5061598;28;20048;-56
2023/05/16 00:12:39;;;;;;;2.65;0.80;;;22.50;41.80;;;;;;5061802;28;20040;-57
2023/05/16 00:15:11;;;;;;;2.40;0.90;;;22.50;41.90;;;;;;5061700;28;20032;-58
2023/05/16 00:17:37;;;;;;;3.30;1.08;;;22.50;41.90;;;;;;5062152;28;20033;-58
2023/05/16 00:20:09;;;;;;;2.63;0.98;;;22.50;41.90;;;;;;5063006;28;20143;-59
2023/05/16 00:22:36;;;;;;;3.85;1.15;;;22.50;41.90;;;;;;5062257;28;20037;-60
2023/05/16 00:25:02;;;;;;;2.42;1.00;;;22.50;41.80;;;;;;5063049;28;20036;-57
2023/05/16 00:27:28;;;;;;;2.25;1.00;;;22.40;41.70;;;;;;5061163;28;20095;-54
2023/05/16 00:29:55;;;;;;;3.58;1.13;;;22.50;41.80;;;;;;5062611;28;20032;-60
2023/05/16 00:32:21;;;;;;;3.47;0.80;;;22.50;41.70;;;;;;5059735;28;20035;-57
2023/05/16 00:34:47;;;;;;;1.90;0.90;;;22.40;41.60;;;;;;5059716;28;20037;-56
2023/05/16 00:37:13;;;;;;;3.72;0.95;;;22.40;41.60;;;;;;5042697;28;20070;-59
2023/05/16 00:39:39;;;;;;;2.67;0.80;;;22.40;41.60;;;;;;5060787;28;20505;-54
2023/05/16 00:42:05;;;;;;;3.17;0.90;;;22.40;41.60;;;;;;5061996;28;20051;-58
2023/05/16 00:44:31;;;;;;;3.58;0.95;;;22.50;41.50;;;;;;5061028;28;20040;-58
2023/05/16 00:46:59;;;;;;;1.90;0.85;;;22.40;41.40;;;;;;5040407;28;20039;-56
2023/05/16 00:49:25;;;;;;;3.22;1.00;;;22.40;41.30;;;;;;5044705;28;20112;-60
2023/05/16 00:51:52;;;;;;;2.80;1.00;;;22.40;41.30;;;;;;5042885;28;20028;-58
2023/05/16 00:54:19;;;;;;;2.03;0.93;;;22.40;41.20;;;;;;5043350;28;20116;-60
2023/05/16 00:56:45;;;;;;;2.88;0.80;;;22.40;41.10;;;;;;5060894;28;20044;-59
2023/05/16 00:59:11;;;;;;;2.00;0.88;;;22.40;41.10;;;;;;5043335;28;20089;-60
2023/05/16 01:01:39;;;;;;;2.90;1.05;;;22.40;41.00;;;;;;5042521;28;20036;-57
2023/05/16 01:04:06;;;;;;;3.92;1.10;;;22.40;41.00;;;;;;5026837;28;20379;-58
2023/05/16 01:06:34;;;;;;;2.85;0.98;;;22.40;40.90;;;;;;5061221;28;20040;-56
2023/05/16 01:09:00;;;;;;;2.22;0.90;;;22.40;40.90;;;;;;5043958;28;20024;-60
2023/05/16 01:11:51;;;;;;;3.80;1.02;;;22.50;40.80;;;;;;5058497;28;20029;-57
2023/05/16 01:14:39;;;;;;;1.52;0.80;;;22.40;40.70;;;;;;5042620;28;20371;-58
2023/05/16 01:17:05;;;;;;;2.35;1.10;;;22.40;40.70;;;;;;5058404;28;20044;-59
2023/05/16 01:19:42;;;;;;;2.47;1.17;;;22.50;40.60;;;;;;5060769;28;20089;-62
2023/05/16 01:22:50;;;;;;;2.22;0.90;;;22.50;40.60;;;;;;5032978;28;20029;-57
2023/05/16 01:25:31;;;;;;;2.03;0.93;;;22.40;40.50;;;;;;5041814;28;20036;-55
2023/05/16 01:28:00;;;;;;;2.20;0.70;;;22.40;40.50;;;;;;5063638;28;20027;-57
2023/05/16 01:30:25;;;;;;;4.00;0.98;;;22.40;40.50;;;;;;5045579;28;20056;-58
2023/05/16 01:32:51;;;;;;;2.10;0.80;;;22.40;40.40;;;;;;5042470;28;20088;-59
2023/05/16 01:35:19;;;;;;;3.10;0.90;;;22.40;40.40;;;;;;5042565;28;20350;-58
2023/05/16 01:37:57;;;;;;;2.72;0.80;;;22.40;40.30;;;;;;5062043;28;20108;-58
2023/05/16 01:40:37;;;;;;;4.63;1.33;;;22.50;40.30;;;;;;5059274;28;20199;-59
2023/05/16 01:43:10;;;;;;;2.20;0.88;;;22.40;40.20;;;;;;5060025;28;20041;-58
2023/05/16 01:45:46;;;;;;;2.28;0.90;;;22.50;40.20;;;;;;5063378;28;20021;-58
2023/05/16 01:48:22;;;;;;;3.08;0.95;;;22.40;40.10;;;;;;5042392;28;20041;-59
2023/05/16 01:50:55;;;;;;;3.85;1.00;;;22.40;40.10;;;;;;5059852;28;20067;-57
2023/05/16 01:53:37;;;;;;;2.67;0.82;;;22.40;40.10;;;;;;5059540;28;20561;-55
2023/05/16 01:56:09;;;;;;;5.45;1.08;;;22.40;40.00;;;;;;5063511;28;20043;-60
2023/05/16 01:58:36;;;;;;;2.17;0.85;;;22.40;40.00;;;;;;5063653;28;20057;-58
2023/05/16 02:01:03;;;;;;;3.50;0.90;;;22.40;40.00;;;;;;5045781;28;20348;-59
2023/05/16 02:03:30;;;;;;;4.03;1.05;;;22.40;40.00;;;;;;5065441;28;20351;-59
2023/05/16 02:05:56;;;;;;;2.60;0.80;;;22.40;39.90;;;;;;5048575;28;20083;-59
2023/05/16 02:08:25;;;;;;;2.22;1.00;;;22.40;39.80;;;;;;5064357;28;20471;-58
2023/05/16 02:10:51;;;;;;;3.50;0.90;;;22.40;39.80;;;;;;5063718;28;20047;-59
2023/05/16 02:13:17;;;;;;;2.15;0.88;;;22.40;39.70;;;;;;5045159;28;20028;-59
2023/05/16 02:15:44;;;;;;;2.30;0.80;;;22.40;39.80;;;;;;5047849;28;20032;-54
2023/05/16 02:18:11;;;;;;;4.13;1.10;;;22.40;39.80;;;;;;5048475;28;20020;-57
2023/05/16 02:20:37;;;;;;;3.20;0.88;;;22.40;39.80;;;;;;5064542;28;20120;-59
2023/05/16 02:23:03;;;;;;;3.47;1.00;;;22.40;39.90;;;;;;5063206;28;20047;-56
2023/05/16 02:25:31;;;;;;;2.75;0.90;;;22.40;39.90;;;;;;5047455;28;20028;-59
2023/05/16 02:27:56;;;;;;;3.67;1.67;;;22.40;39.90;;;;;;5046982;28;20035;-58
2023/05/16 02:30:22;;;;;;;3.83;1.60;;;22.40;39.80;;;;;;5062556;28;20120;-59
2023/05/16 02:32:48;;;;;;;3.20;1.52;;;22.40;39.80;;;;;;5062163;28;20355;-56
2023/05/16 02:35:14;;;;;;;3.33;1.10;;;22.40;39.70;;;;;;5064343;28;20024;-59
2023/05/16 02:37:41;;;;;;;3.40;1.27;;;22.40;39.70;;;;;;5048266;28;20045;-59
2023/05/16 02:40:08;;;;;;;3.47;1.40;;;22.40;40.30;;;;;;5044474;28;20374;-59
2023/05/16 02:42:35;;;;;;;3.72;1.00;;;22.40;39.60;;;;;;5063783;28;20114;-57
2023/05/16 02:45:01;;;;;;;5.70;1.48;;;22.40;39.50;;;;;;5065037;28;20025;-59
2023/05/16 02:47:28;;;;;;;2.53;1.02;;;22.40;39.50;;;;;;5062573;28;20028;-58
2023/05/16 02:49:53;;;;;;;4.80;1.13;;;22.40;39.50;;;;;;5063820;28;20033;-59
2023/05/16 02:52:20;;;;;;;3.03;0.98;;;22.40;39.50;;;;;;5044742;28;20443;-58
2023/05/16 02:54:46;;;;;;;2.28;0.90;;;22.40;39.50;;;;;;5046330;28;20033;-60
2023/05/16 02:57:12;;;;;;;2.72;0.95;;;22.40;39.40;;;;;;5062073;28;20102;-57
2023/05/16 02:59:38;;;;;;;2.75;1.10;;;22.40;39.40;;;;;;5062065;28;20421;-58
2023/05/16 03:02:04;;;;;;;2.63;0.90;;;22.40;39.30;;;;;;5043340;28;20145;-58
2023/05/16 03:04:31;;;;;;;2.95;1.00;;;22.40;39.30;;;;;;5047367;28;20032;-57
2023/05/16 03:06:57;;;;;;;2.83;1.02;;;22.40;39.30;;;;;;5063419;28;20039;-56
2023/05/16 03:09:23;;;;;;;4.75;1.30;;;22.40;39.30;;;;;;5062293;28;20024;-59
2023/05/16 03:11:48;;;;;;;4.05;1.27;;;22.40;39.30;;;;;;5061759;28;20032;-57
2023/05/16 03:14:14;;;;;;;4.50;1.40;;;22.40;39.30;;;;;;5044368;28;20043;-61
2023/05/16 03:16:42;;;;;;;3.13;1.10;;;22.40;39.40;;;;;;5063435;28;20446;-57
2023/05/16 03:19:09;;;;;;;3.50;1.20;;;22.40;39.40;;;;;;5061565;28;20025;-59
2023/05/16 03:21:35;;;;;;;2.22;0.73;;;22.40;39.90;;;;;;5046240;28;20032;-60
2023/05/16 03:24:03;;;;;;;2.50;1.00;;;22.40;39.30;;;;;;5064236;28;20107;-61
2023/05/16 03:26:29;;;;;;;2.90;0.82;;;22.40;39.30;;;;;;5062842;28;20456;-57
2023/05/16 03:28:55;;;;;;;2.75;1.02;;;22.40;39.20;;;;;;5064145;28;20146;-58
2023/05/16 03:31:21;;;;;;;3.67;0.90;;;22.40;39.20;;;;;;5044807;28;20093;-56
2023/05/16 03:33:47;;;;;;;3.35;1.17;;;22.30;39.10;;;;;;5064895;28;20028;-59
2023/05/16 03:36:13;;;;;;;2.67;0.93;;;22.30;39.10;;;;;;5043848;28;20041;-56
2023/05/16 03:38:39;;;;;;;2.15;0.80;;;22.40;39.10;;;;;;5063062;28;20036;-60
2023/05/16 03:41:05;;;;;;;3.40;0.98;;;22.40;39.10;;;;;;5062991;28;20036;-60
2023/05/16 03:43:31;;;;;;;3.00;0.82;;;22.40;39.10;;;;;;5061859;28;20045;-60
2023/05/16 03:45:56;;;;;;;2.80;0.80;;;22.40;39.00;;;;;;5064564;28;20481;-60
2023/05/16 03:48:22;;;;;;;4.78;1.20;;;22.30;39.00;;;;;;5064397;28;20043;-59
2023/05/16 03:50:48;;;;;;;3.00;1.05;;;22.30;39.00;;;;;;5062271;28;20472;-56
2023/05/16 03:53:14;;;;;;;3.00;0.80;;;22.30;39.00;;;;;;5062669;28;20030;-57
2023/05/16 03:55:40;;;;;;;2.28;0.70;;;22.40;39.00;;;;;;5061703;28;20040;-54
2023/05/16 03:58:06;;;;;;;4.13;1.00;;;22.30;38.90;;;;;;5062718;28;20505;-51
2023/05/16 04:00:33;;;;;;;2.85;0.85;;;22.30;38.90;;;;;;5062070;28;20037;-59
2023/05/16 04:02:59;;;;;;;2.03;0.80;;;22.30;38.80;;;;;;5045599;28;20032;-58
2023/05/16 04:05:25;;;;;;;3.03;0.80;;;22.30;39.50;;;;;;5062174;28;20485;-58
2023/05/16 04:07:50;;;;;;;1.98;0.70;;;22.30;38.80;;;;;;5061550;28;20037;-61
2023/05/16 04:10:16;;;;;;;2.63;1.02;;;22.30;38.80;;;;;;5059898;28;20037;-60
2023/05/16 04:12:43;;;;;;;3.25;0.80;;;22.30;38.80;;;;;;5060880;28;20032;-57
2023/05/16 04:15:09;;;;;;;2.00;0.77;;;22.30;38.80;;;;;;5060938;28;20104;-58
2023/05/16 04:17:35;;;;;;;3.55;0.95;;;22.30;38.80;;;;;;5041026;28;20040;-57
2023/05/16 04:20:03;;;;;;;1.60;0.52;;;22.30;38.80;;;;;;5060235;28;20172;-59
2023/05/16 04:22:29;;;;;;;2.53;0.80;;;22.30;38.70;;;;;;5062380;28;20054;-55
2023/05/16 04:24:55;;;;;;;2.60;0.88;;;22.30;38.70;;;;;;5060494;28;20459;-58
2023/05/16 04:27:22;;;;;;;3.63;0.88;;;22.30;38.70;;;;;;5062835;28;20039;-57
2023/05/16 04:29:48;;;;;;;2.53;0.88;;;22.30;38.70;;;;;;5059567;28;20029;-56
2023/05/16 04:32:14;;;;;;;2.28;0.80;;;22.30;38.70;;;;;;5063882;28;20111;-59
2023/05/16 04:34:40;;;;;;;2.10;0.60;;;22.40;38.70;;;;;;5062619;28;20471;-58
2023/05/16 04:37:07;;;;;;;2.33;0.80;;;22.40;38.70;;;;;;5061799;28;20084;-60
2023/05/16 04:39:33;;;;;;;2.22;0.70;;;22.40;38.70;;;;;;5059892;28;20086;-60
2023/05/16 04:42:00;;;;;;;4.05;1.08;;;22.40;38.70;;;;;;5062539;28;20025;-59
2023/05/16 04:44:26;;;;;;;2.05;0.60;;;22.30;38.60;;;;;;5060887;28;20052;-61
2023/05/16 04:46:52;;;;;;;3.05;0.90;;;22.30;38.60;;;;;;5060892;28;20028;-59
2023/05/16 04:49:19;;;;;;;3.65;1.00;;;22.40;38.70;;;;;;5059391;28;20028;-62
2023/05/16 04:51:45;;;;;;;1.77;0.82;;;22.40;38.60;;;;;;5043817;28;20459;-54
2023/05/16 04:54:12;;;;;;;5.22;1.05;;;22.30;38.60;;;;;;5061499;28;20349;-56
2023/05/16 04:56:37;;;;;;;2.70;0.80;;;22.40;38.60;;;;;;5060230;28;20047;-59
2023/05/16 04:59:03;;;;;;;2.85;0.75;;;22.30;38.60;;;;;;5061106;28;20033;-57
2023/05/16 05:01:29;;;;;;;1.83;0.70;;;22.40;38.70;;;;;;5059625;28;20025;-58
2023/05/16 05:03:55;;;;;;;2.58;1.02;;;22.30;38.60;;;;;;5061032;28;20444;-59
2023/05/16 05:06:21;;;;;;;2.63;0.70;;;22.40;38.70;;;;;;5061864;28;20072;-56
2023/05/16 05:08:47;;;;;;;3.13;0.90;;;22.40;38.60;;;;;;5058080;28;20024;-58
2023/05/16 05:11:13;;;;;;;2.83;0.80;;;22.30;38.60;;;;;;5058495;28;20031;-58
2023/05/16 05:13:39;;;;;;;3.17;0.80;;;22.40;38.70;;;;;;5060352;28;20376;-59
2023/05/16 05:16:05;;;;;;;3.42;0.90;;;22.40;38.60;;;;;;5061865;28;20148;-59
2023/05/16 05:18:31;;;;;;;2.55;1.00;;;22.40;38.60;;;;;;5059384;28;20108;-59
2023/05/16 05:20:57;;;;;;;2.92;1.05;;;22.40;38.60;;;;;;5059591;28;20119;-59
2023/05/16 05:23:23;;;;;;;4.20;1.13;;;22.40;38.60;;;;;;5059846;28;20123;-59
2023/05/16 05:25:49;;;;;;;3.28;0.70;;;22.40;38.60;;;;;;5062364;28;20020;-60
2023/05/16 05:28:15;;;;;;;1.75;0.68;;;22.40;38.60;;;;;;5060899;28;20413;-59
2023/05/16 05:30:41;;;;;;;1.55;0.60;;;22.40;38.60;;;;;;5062380;28;20187;-56
2023/05/16 05:33:07;;;;;;;1.27;0.60;;;22.40;38.60;;;;;;5060954;28;20124;-60
2023/05/16 05:35:33;;;;;;;2.92;0.68;;;22.40;38.50;;;;;;5062009;28;20029;-58
2023/05/16 05:37:58;;;;;;;2.30;0.80;;;22.40;38.50;;;;;;5043935;28;20149;-60
2023/05/16 05:40:25;;;;;;;3.00;0.75;;;22.40;38.50;;;;;;5062085;28;20029;-57
2023/05/16 05:42:50;;;;;;;1.85;0.80;;;22.40;38.50;;;;;;5062834;28;20067;-55
2023/05/16 05:45:16;;;;;;;2.63;0.95;;;22.40;38.50;;;;;;5061495;28;20025;-62
2023/05/16 05:47:42;;;;;;;3.35;1.00;;;22.40;38.60;;;;;;5060545;28;20074;-58
2023/05/16 05:50:10;;;;;;;2.13;0.65;;;22.40;38.70;;;;;;5059553;28;20464;-57
2023/05/16 05:52:37;;;;;;;3.15;0.80;;;22.40;38.80;;;;;;5059822;28;20051;-58
2023/05/16 05:55:03;;;;;;;2.63;0.75;;;22.40;39.00;;;;;;5060494;28;20021;-63
2023/05/16 05:57:28;;;;;;;1.95;0.60;;;22.40;39.00;;;;;;5060571;28;20420;-59
2023/05/16 05:59:54;;;;;;;2.58;0.60;;;22.40;39.00;;;;;;5060078;28;20055;-61
2023/05/16 06:02:20;;;;;;;3.67;0.70;;;22.40;39.10;;;;;;5059898;28;20029;-55
2023/05/16 06:04:46;;;;;;;3.25;0.85;;;22.40;39.10;;;;;;5043850;28;20118;-58
2023/05/16 06:07:14;;;;;;;2.53;0.98;;;22.40;39.10;;;;;;5059964;28;20024;-59
2023/05/16 06:09:39;;;;;;;2.40;0.85;;;22.40;39.10;;;;;;5059080;28;20097;-60
2023/05/16 06:12:06;;;;;;;2.40;0.88;;;22.40;39.20;;;;;;5062580;28;20413;-59
2023/05/16 06:14:31;;;;;;;2.78;0.70;;;22.40;39.40;;;;;;5059830;28;20055;-59
2023/05/16 06:16:57;;;;;;;2.15;0.80;;;22.30;39.30;;;;;;5059366;28;20075;-60
2023/05/16 06:19:23;;;;;;;2.47;0.85;;;22.40;39.20;;;;;;5056728;28;20410;-60
2023/05/16 06:21:49;;;;;;;3.13;0.93;;;22.40;39.20;;;;;;5058928;28;20048;-57
2023/05/16 06:24:15;;;;;;;1.02;0.52;;;22.30;39.10;;;;;;5061016;28;20037;-60
2023/05/16 06:26:41;;;;;;;2.05;0.90;;;22.40;39.20;;;;;;5060384;28;20025;-59
2023/05/16 06:29:07;;;;;;;2.78;0.73;;;22.30;39.10;;;;;;5060081;28;20339;-60
2023/05/16 06:31:33;;;;;;;3.28;0.90;;;22.30;39.30;;;;;;5062396;28;20416;-59
2023/05/16 06:33:59;;;;;;;2.72;0.85;;;22.40;39.40;;;;;;5058655;28;20062;-61
2023/05/16 06:36:25;;;;;;;2.70;0.60;;;22.40;39.50;;;;;;5057702;28;20045;-60
2023/05/16 06:38:51;;;;;;;2.90;0.90;;;22.40;39.50;;;;;;5058714;28;20423;-62
2023/05/16 06:41:16;;;;;;;3.17;0.73;;;22.40;39.50;;;;;;5065088;28;20042;-62
2023/05/16 06:43:42;;;;;;;1.90;0.70;;;22.40;39.60;;;;;;5060110;28;20456;-62
2023/05/16 06:46:08;;;;;;;2.33;0.70;;;22.40;39.60;;;;;;5065025;28;20107;-59
2023/05/16 06:48:34;;;;;;;1.95;0.50;;;22.30;39.60;;;;;;5062538;28;20024;-58
2023/05/16 06:51:00;;;;;;;2.92;0.82;;;22.30;39.60;;;;;;5064466;28;20402;-57
2023/05/16 06:53:26;;;;;;;2.63;0.75;;;22.40;39.80;;;;;;5063590;28;20060;-62
2023/05/16 06:55:52;;;;;;;3.65;0.90;;;22.40;39.90;;;;;;5060691;28;20058;-57
2023/05/16 06:58:18;;;;;;;2.65;0.70;;;22.40;40.00;;;;;;5059434;28;20124;-60
2023/05/16 07:00:44;;;;;;;1.58;0.68;;;22.30;40.00;;;;;;5059875;28;20049;-59
2023/05/16 07:03:21;;;;;;;3.17;0.75;;;22.40;40.10;;;;;;5063980;28;20035;-60
2023/05/16 07:05:54;;;;;;;1.90;0.75;;;22.30;40.10;;;;;;5061705;28;20130;-59
2023/05/16 07:08:26;;;;;;;2.17;0.70;;;22.40;40.20;;;;;;5054101;28;20025;-58
2023/05/16 07:10:55;;;;;;;2.45;0.77;;;22.40;40.20;;;;;;5057079;28;20032;-62
2023/05/16 07:13:27;;;;;;;1.85;0.80;;;22.40;40.20;;;;;;5061390;28;20071;-62
2023/05/16 07:16:03;;;;;;;2.10;0.73;;;22.30;40.20;;;;;;5073212;28;20123;-61
2023/05/16 07:18:33;;;;;;;1.52;0.63;;;22.30;40.20;;;;;;5070694;28;20035;-59
2023/05/16 07:21:10;;;;;;;3.03;0.90;;;22.30;40.20;;;;;;5057882;28;20183;-57
2023/05/16 07:23:40;;;;;;;2.05;0.45;;;22.40;40.20;;;;;;5038060;28;20061;-61
2023/05/16 07:26:21;;;;;;;2.05;0.75;;;22.40;40.20;;;;;;5055855;28;20021;-59
2023/05/16 07:29:03;;;;;;;4.13;0.88;;;22.40;40.20;;;;;;5055149;28;20111;-61
2023/05/16 07:31:34;;;;;;;2.45;0.80;;;22.40;40.20;;;;;;5071082;28;20031;-60
2023/05/16 07:34:06;;;;;;;1.77;0.60;;;22.40;40.20;;;;;;5059736;28;20290;-60
2023/05/16 07:36:33;;;;;;;1.48;0.52;;;22.40;40.20;;;;;;5055831;28;20327;-59
2023/05/16 07:39:00;;;;;;;2.20;0.75;;;22.40;40.10;;;;;;5062056;28;20033;-60
2023/05/16 07:41:27;;;;;;;1.63;0.50;;;22.40;40.00;;;;;;5058128;28;20043;-63
2023/05/16 07:43:53;;;;;;;2.00;0.63;;;22.40;39.90;;;;;;5053112;28;20046;-59
2023/05/16 07:46:19;;;;;;;1.25;0.50;;;22.40;39.80;;;;;;5058446;28;20074;-64
2023/05/16 07:48:45;;;;;;;3.17;0.60;;;22.40;39.70;;;;;;5060638;28;20033;-61
2023/05/16 07:51:11;;;;;;;2.20;0.60;;;22.40;39.70;;;;;;5062422;28;20463;-61
2023/05/16 07:53:37;;;;;;;1.80;0.70;;;22.40;39.50;;;;;;5060650;28;20449;-57
2023/05/16 07:56:03;;;;;;;1.58;0.50;;;22.40;39.40;;;;;;5063731;28;20332;-61
2023/05/16 07:58:29;;;;;;;1.77;0.50;;;22.40;39.20;;;;;;5060825;28;20108;-61
2023/05/16 08:00:55;;;;;;;1.52;0.43;;;22.40;39.10;;;;;;5062692;28;20032;-61
2023/05/16 08:03:21;;;;;;;1.08;0.30;;;22.40;39.00;;;;;;5063457;28;20044;-59
2023/05/16 08:05:48;;;;;;;1.25;0.50;;;22.40;38.80;;;;;;5059947;28;20361;-59
2023/05/16 08:08:14;;;;;;;1.35;0.70;;;22.40;38.70;;;;;;5061979;28;20316;-59
2023/05/16 08:10:39;;;;;;;1.65;0.47;;;22.40;38.60;;;;;;5063471;28;20039;-58
2023/05/16 08:13:05;;;;;;;3.13;1.25;;;22.40;38.50;;;;;;5062016;28;20016;-59
2023/05/16 08:15:31;;;;;;;1.67;0.40;;;22.40;38.40;;;;;;5061106;28;20403;-59
2023/05/16 08:17:57;;;;;;;2.63;0.70;;;22.40;38.30;;;;;;5060238;28;20052;-60
2023/05/16 08:20:24;;;;;;;1.23;0.50;;;22.40;38.20;;;;;;5061987;28;20387;-58
2023/05/16 08:22:51;;;;;;;1.30;0.50;;;22.50;38.20;;;;;;5043088;28;20025;-60
2023/05/16 08:25:17;;;;;;;2.28;0.60;;;22.40;38.10;;;;;;5061993;28;20093;-57
2023/05/16 08:27:44;;;;;;;0.73;0.40;;;22.50;38.00;;;;;;5061275;28;20044;-62
2023/05/16 08:30:11;;;;;;;1.17;0.65;;;22.50;38.00;;;;;;5061581;28;20029;-61
2023/05/16 08:32:37;;;;;;;0.98;0.38;;;22.40;37.90;;;;;;5059816;28;20029;-58
2023/05/16 08:35:03;;;;;;;1.42;0.35;;;22.40;37.80;;;;;;5062002;28;20029;-63
2023/05/16 08:37:29;;;;;;;0.95;0.40;;;22.40;37.70;;;;;;5063112;28;20060;-59
2023/05/16 08:39:56;;;;;;;0.70;0.30;;;22.50;37.70;;;;;;5061168;28;20060;-61
2023/05/16 08:42:21;;;;;;;1.20;0.50;;;22.50;37.70;;;;;;5059570;28;20025;-60
2023/05/16 08:44:48;;;;;;;1.35;0.60;;;22.40;37.60;;;;;;5062599;28;20097;-61
2023/05/16 08:47:20;;;;;;;1.38;0.40;;;22.40;37.50;;;;;;5058785;28;20331;-60
2023/05/16 08:49:50;;;;;;;0.80;0.20;;;22.40;37.40;;;;;;5041878;28;20024;-61
2023/05/16 08:52:19;;;;;;;1.67;0.52;;;22.50;37.40;;;;;;5062052;28;20036;-59
2023/05/16 08:54:46;;;;;;;0.93;0.32;;;22.40;37.40;;;;;;5060023;28;20056;-61
2023/05/16 08:57:13;;;;;;;2.47;0.50;;;22.50;37.50;;;;;;5053727;28;20559;-62
2023/05/16 08:59:40;;;;;;;2.88;0.55;;;22.50;37.50;;;;;;5053812;28;20029;-60
2023/05/16 09:02:07;;;;;;;2.72;0.60;;;22.50;37.70;;;;;;5057489;28;20414;-56
2023/05/16 09:04:34;;;;;;;1.88;0.60;;;22.50;37.80;;;;;;5072417;28;20129;-60
2023/05/16 09:07:00;;;;;;;1.50;0.50;;;22.50;37.90;;;;;;5069291;28;20036;-60
2023/05/16 09:09:26;;;;;;;1.52;0.47;;;22.50;37.90;;;;;;5057264;28;20149;-60
2023/05/16 09:11:52;;;;;;;0.77;0.28;;;22.50;37.80;;;;;;5055399;28;20021;-62
2023/05/16 09:14:18;;;;;;;0.82;0.40;;;22.50;37.70;;;;;;5062462;28;20029;-59
2023/05/16 09:17:01;;;;;;;1.52;0.30;;;22.50;37.50;;;;;;5071893;28;20128;-56
2023/05/16 09:19:41;;;;;;;2.10;0.70;;;22.50;37.30;;;;;;5052271;28;20056;-60
2023/05/16 09:22:14;;;;;;;5.97;0.60;;;22.50;37.10;;;;;;5035433;28;20355;-57
2023/05/16 09:24:44;;;;;;;0.82;0.43;;;22.50;36.80;;;;;;5051865;28;20025;-59
2023/05/16 09:27:14;;;;;;;1.65;0.43;;;22.50;36.60;;;;;;5052344;28;20047;-57
2023/05/16 09:29:41;;;;;;;0.98;0.45;;;22.50;36.50;;;;;;5053242;28;20040;-57
2023/05/16 09:32:15;;;;;;;0.82;0.40;;;22.50;36.40;;;;;;5052991;28;20049;-58
2023/05/16 09:34:47;;;;;;;0.77;0.30;;;22.50;36.20;;;;;;5054427;28;20045;-55
2023/05/16 09:37:13;;;;;;;0.98;0.40;;;22.50;36.20;;;;;;5052927;28;20099;-56
2023/05/16 09:39:49;;;;;;;0.95;0.40;;;22.50;36.20;;;;;;5065703;28;20042;-54
2023/05/16 09:42:16;;;;;;;0.77;0.43;;;22.50;36.10;;;;;;5066988;28;20029;-58
2023/05/16 09:44:53;;;;;;;1.30;0.38;;;22.50;36.10;;;;;;5013105;28;20038;-56
2023/05/16 09:47:20;;;;;;;1.98;0.40;;;22.50;36.00;;;;;;5013851;28;20192;-54
2023/05/16 09:49:50;;;;;;;1.98;0.30;;;22.50;36.00;;;;;;5031125;28;20030;-56
2023/05/16 09:52:16;;;;;;;1.77;0.35;;;22.50;36.00;;;;;;5027105;28;20038;-59
2023/05/16 09:54:42;;;;;;;1.73;0.40;;;22.50;36.00;;;;;;5012915;28;20149;-55
2023/05/16 09:57:09;;;;;;;1.40;0.40;;;22.50;36.10;;;;;;5023008;28;20049;-57
2023/05/16 09:59:37;;;;;;;1.08;0.45;;;22.50;36.00;;;;;;5011792;28;20048;-57
2023/05/16 10:02:07;;;;;;;2.55;0.40;;;22.50;36.00;;;;;;5012941;28;20025;-58
2023/05/16 10:04:35;;;;;;;4.63;0.60;;;22.60;36.10;;;;;;5012685;28;20049;-51
2023/05/16 10:07:03;;;;;;;1.60;0.50;;;22.60;36.10;;;;;;5021565;28;20112;-58
2023/05/16 10:09:32;;;;;;;4.13;0.40;;;22.60;36.10;;;;;;5012417;28;20026;-53
2023/05/16 10:12:05;;;;;;;3.00;0.43;;;22.60;36.00;;;;;;5009849;28;20022;-58
2023/05/16 10:14:36;;;;;;;2.03;0.70;;;22.60;36.00;;;;;;5012600;28;20033;-59
2023/05/16 10:17:06;;;;;;;1.92;0.32;;;22.60;36.00;;;;;;5015350;28;20038;-55
2023/05/16 10:19:37;;;;;;;1.05;0.40;;;22.50;36.00;;;;;;5019703;28;20030;-58
2023/05/16 10:22:05;;;;;;;2.15;0.52;;;22.50;36.10;;;;;;5021080;28;20064;-58
2023/05/16 10:24:59;;;;;;;2.42;0.50;;;22.60;36.10;;;;;;5021200;28;20038;-57
2023/05/16 10:27:26;;;;;;;1.98;0.40;;;22.50;36.20;;;;;;5014743;28;20480;-57
2023/05/16 10:29:52;;;;;;;1.52;0.30;;;22.60;36.30;;;;;;5025883;28;20041;-58
2023/05/16 10:32:19;;;;;;;2.17;0.63;;;22.60;36.30;;;;;;5029341;28;20113;-59
2023/05/16 10:34:45;;;;;;;1.58;0.40;;;22.60;36.30;;;;;;5016164;28;20033;-60
2023/05/16 10:37:12;;;;;;;1.38;0.45;;;22.60;36.30;;;;;;5018642;28;20136;-62
2023/05/16 10:39:39;;;;;;;2.05;0.40;;;22.60;36.50;;;;;;5017788;28;20032;-60
2023/05/16 10:42:06;;;;;;;1.55;0.35;;;22.60;36.50;;;;;;5018707;28;20038;-61
2023/05/16 10:44:33;;;;;;;1.33;0.40;;;22.60;36.50;;;;;;5056340;28;20425;-62
2023/05/16 10:46:59;;;;;;;2.08;0.30;;;22.70;36.60;;;;;;5055012;28;20367;-62
2023/05/16 10:49:30;;;;;;;1.55;0.50;;;22.70;36.40;;;;;;5054743;28;20020;-59
2023/05/16 10:52:14;;;;;;;3.63;0.80;;;22.80;36.40;;;;;;5057744;28;20027;-59
2023/05/16 10:54:50;;;;;;;2.55;0.70;;;22.90;36.30;;;;;;5059844;28;20040;-63
2023/05/16 10:57:22;;;;;;;2.13;0.57;;;23.00;36.10;;;;;;5055512;28;20040;-63
2023/05/16 10:59:50;;;;;;;2.85;0.57;;;23.10;36.00;;;;;;5057519;28;20444;-57
2023/05/16 11:02:32;;;;;;;1.48;0.63;;;23.20;35.80;;;;;;5035201;28;20044;-66
2023/05/16 11:05:01;;;;;;;4.13;0.38;;;23.30;35.60;;;;;;5060299;28;20044;-61
2023/05/16 11:07:33;;;;;;;2.55;0.60;;;23.40;35.50;;;;;;5055529;28;20459;-60
2023/05/16 11:10:08;;;;;;;3.28;0.60;;;23.40;35.30;;;;;;5055614;28;20040;-62
2023/05/16 11:12:44;;;;;;;2.58;0.50;;;23.50;35.20;;;;;;5055699;28;20060;-61
2023/05/16 11:15:27;;;;;;;1.92;0.68;;;23.60;35.10;;;;;;5056989;28;20109;-62
2023/05/16 11:18:07;;;;;;;1.58;0.60;;;23.70;35.10;;;;;;5059344;28;20033;-60
2023/05/16 11:20:38;;;;;;;1.77;0.50;;;23.70;35.00;;;;;;5037277;28;20029;-61
2023/05/16 11:23:20;;;;;;;1.70;0.60;;;23.80;34.90;;;;;;5054787;28;20021;-64
2023/05/16 11:25:59;;;;;;;1.40;0.50;;;23.90;34.80;;;;;;5038881;28;20484;-60
2023/05/16 11:28:26;;;;;;;2.05;0.50;;;24.00;34.70;;;;;;5055382;28;20452;-58
2023/05/16 11:30:57;;;;;;;2.63;0.80;;;24.00;34.60;;;;;;5054648;28;20078;-60
2023/05/16 11:33:24;;;;;;;2.10;0.73;;;24.00;34.50;;;;;;5041083;28;20024;-62
2023/05/16 11:36:04;;;;;;;1.88;0.82;;;24.10;34.30;;;;;;5039558;28;20092;-63
2023/05/16 11:38:37;;;;;;;4.25;1.88;;;24.10;34.10;;;;;;5051511;28;20024;-60
2023/05/16 11:41:06;;;;;;;2.47;0.82;;;24.20;34.10;;;;;;5057403;28;20361;-62
2023/05/16 11:43:44;;;;;;;2.40;1.38;;;24.20;33.90;;;;;;5054684;28;20061;-62
2023/05/16 11:46:15;;;;;;;2.38;1.35;;;24.30;33.90;;;;;;5035668;28;20053;-62
2023/05/16 11:48:41;;;;;;;3.65;1.80;;;24.30;33.80;;;;;;5055334;28;20033;-63
2023/05/16 11:51:08;;;;;;;6.95;1.80;;;24.40;33.70;;;;;;5052006;28;20464;-62
2023/05/16 11:53:36;;;;;;;6.57;1.83;;;24.40;33.60;;;;;;5054636;28;20029;-62
2023/05/16 11:56:03;;;;;;;5.45;2.15;;;24.50;33.50;;;;;;5054375;28;20120;-61
2023/05/16 11:58:29;;;;;;;3.90;2.30;;;24.50;33.40;;;;;;5052126;28;20068;-61
2023/05/16 12:00:56;;;;;;;6.13;2.25;;;24.50;33.20;;;;;;5034167;28;20049;-58
2023/05/16 12:03:22;;;;;;;5.40;2.80;;;24.60;33.10;;;;;;5056033;28;20440;-63
2023/05/16 12:05:53;;;;;;;4.57;2.60;;;24.60;33.10;;;;;;5034561;28;20029;-58
2023/05/16 12:08:23;;;;;;;4.25;2.67;;;24.70;33.00;;;;;;5037107;28;20436;-61
2023/05/16 12:10:50;;;;;;;6.32;2.80;;;24.70;32.80;;;;;;5056601;28;20051;-60
2023/05/16 12:13:18;;;;;;;4.75;2.95;;;24.70;32.80;;;;;;5053398;28;20147;-59
2023/05/16 12:15:45;;;;;;;4.35;2.60;;;24.70;32.70;;;;;;5054169;28;20268;-59
2023/05/16 12:18:11;;;;;;;6.88;3.50;;;24.80;32.60;;;;;;5054398;28;20102;-59
2023/05/16 12:20:38;;;;;;;6.57;3.03;;;24.80;32.30;;;;;;5048809;28;20130;-61
2023/05/16 12:23:03;;;;;;;3.35;2.55;;;24.80;32.10;;;;;;5051158;28;20099;-60
2023/05/16 12:25:31;;;;;;;6.03;2.78;;;24.90;32.00;;;;;;5052179;28;20558;-63
2023/05/16 12:28:00;;;;;;;3.92;3.05;;;24.90;31.80;;;;;;5054881;28;20090;-66
2023/05/16 12:30:27;;;;;;;3.85;1.92;;;24.90;31.70;;;;;;5051181;28;20037;-64
2023/05/16 12:33:00;;;;;;;2.42;1.73;;;24.90;31.50;;;;;;5053850;28;20021;-63
2023/05/16 12:35:31;;;;;;;2.35;1.58;;;24.90;31.40;;;;;;5053964;28;20067;-64
2023/05/16 12:37:56;;;;;;;3.78;1.95;;;24.90;31.30;;;;;;5054761;28;20040;-62
2023/05/16 12:40:23;;;;;;;5.78;1.80;;;24.90;31.30;;;;;;5054337;28;20036;-60
2023/05/16 12:42:53;;;;;;;2.88;1.88;;;24.90;31.40;;;;;;5055599;28;20463;-62
2023/05/16 12:45:22;;;;;;;2.92;1.63;;;24.90;31.40;;;;;;5057395;28;20455;-68
2023/05/16 12:47:55;;;;;;;4.57;1.95;;;24.90;31.50;;;;;;5059494;28;20029;-65
2023/05/16 12:50:26;;;;;;;3.10;1.30;;;24.90;31.60;;;;;;5056006;28;20024;-65
2023/05/16 12:52:57;;;;;;;4.55;2.10;;;24.90;31.60;;;;;;5054592;28;20031;-65